sensor_id;sensor_type;location;lat;lon;timestamp;P1;durP1;ratioP1;P2;durP2;ratioP2
66669;SDS011;53568;52.164;4.472;2024-03-02T00:02:13;1.02;;;1.00;;
66669;SDS011;53568;52.164;4.472;2024-03-02T00:04:44;0.87;;;0.85;;
66669;SDS011;53568;52.164;4.472;2024-03-02T00:07:11;0.75;;;0.75;;
66669;SDS011;53568;52.164;4.472;2024-03-02T00:09:39;0.87;;;0.87;;
66669;SDS011;53568;52.164;4.472;2024-03-02T00:12:05;0.88;;;0.87;;
66669;SDS011;53568;52.164;4.472;2024-03-02T00:14:31;1.00;;;0.99;;
66669;SDS011;53568;52.164;4.472;2024-03-02T00:16:57;1.03;;;1.02;;
66669;SDS011;53568;52.164;4.472;2024-03-02T00:19:23;1.03;;;1.01;;
66669;SDS011;53568;52.164;4.472;2024-03-02T00:21:50;1.03;;;1.02;;
66669;SDS011;53568;52.164;4.472;2024-03-02T00:24:26;1.03;;;1.02;;
66669;SDS011;53568;52.164;4.472;2024-03-02T00:26:58;1.06;;;1.05;;
66669;SDS011;53568;52.164;4.472;2024-03-02T00:29:24;1.01;;;1.00;;
66669;SDS011;53568;52.164;4.472;2024-03-02T00:31:50;0.98;;;0.98;;
66669;SDS011;53568;52.164;4.472;2024-03-02T00:34:17;0.88;;;0.87;;
66669;SDS011;53568;52.164;4.472;2024-03-02T00:36:42;0.71;;;0.70;;
66669;SDS011;53568;52.164;4.472;2024-03-02T00:39:09;0.98;;;0.97;;
66669;SDS011;53568;52.164;4.472;2024-03-02T00:41:40;0.83;;;0.82;;
66669;SDS011;53568;52.164;4.472;2024-03-02T00:44:10;0.94;;;0.93;;
66669;SDS011;53568;52.164;4.472;2024-03-02T00:46:38;0.90;;;0.90;;
66669;SDS011;53568;52.164;4.472;2024-03-02T00:51:47;0.91;;;0.90;;
66669;SDS011;53568;52.164;4.472;2024-03-02T00:54:15;0.94;;;0.93;;
66669;SDS011;53568;52.164;4.472;2024-03-02T00:56:49;1.00;;;0.99;;
66669;SDS011;53568;52.164;4.472;2024-03-02T00:59:16;0.98;;;0.96;;
66669;SDS011;53568;52.164;4.472;2024-03-02T01:01:41;1.09;;;1.06;;
66669;SDS011;53568;52.164;4.472;2024-03-02T01:04:10;0.97;;;0.94;;
66669;SDS011;53568;52.164;4.472;2024-03-02T01:06:35;0.95;;;0.92;;
66669;SDS011;53568;52.164;4.472;2024-03-02T01:09:01;0.78;;;0.76;;
66669;SDS011;53568;52.164;4.472;2024-03-02T01:11:27;0.86;;;0.85;;
66669;SDS011;53568;52.164;4.472;2024-03-02T01:13:53;0.95;;;0.94;;
66669;SDS011;53568;52.164;4.472;2024-03-02T01:16:19;0.78;;;0.77;;
66669;SDS011;53568;52.164;4.472;2024-03-02T01:18:45;0.82;;;0.82;;
66669;SDS011;53568;52.164;4.472;2024-03-02T01:21:11;0.75;;;0.74;;
66669;SDS011;53568;52.164;4.472;2024-03-02T01:23:37;0.96;;;0.94;;
66669;SDS011;53568;52.164;4.472;2024-03-02T01:26:02;0.90;;;0.89;;
66669;SDS011;53568;52.164;4.472;2024-03-02T01:28:28;0.90;;;0.89;;
66669;SDS011;53568;52.164;4.472;2024-03-02T01:30:54;1.11;;;1.11;;
66669;SDS011;53568;52.164;4.472;2024-03-02T01:33:19;1.30;;;1.29;;
66669;SDS011;53568;52.164;4.472;2024-03-02T01:35:46;1.26;;;1.24;;
66669;SDS011;53568;52.164;4.472;2024-03-02T01:38:12;1.33;;;1.32;;
66669;SDS011;53568;52.164;4.472;2024-03-02T01:40:38;1.30;;;1.30;;
66669;SDS011;53568;52.164;4.472;2024-03-02T01:43:04;1.30;;;1.29;;
66669;SDS011;53568;52.164;4.472;2024-03-02T01:45:31;1.23;;;1.23;;
66669;SDS011;53568;52.164;4.472;2024-03-02T01:47:57;1.25;;;1.25;;
66669;SDS011;53568;52.164;4.472;2024-03-02T01:50:31;1.30;;;1.30;;
66669;SDS011;53568;52.164;4.472;2024-03-02T01:52:57;1.10;;;1.10;;
66669;SDS011;53568;52.164;4.472;2024-03-02T01:55:24;1.00;;;1.00;;
66669;SDS011;53568;52.164;4.472;2024-03-02T01:57:51;0.82;;;0.82;;
66669;SDS011;53568;52.164;4.472;2024-03-02T02:00:18;1.02;;;1.02;;
66669;SDS011;53568;52.164;4.472;2024-03-02T02:02:50;0.87;;;0.86;;
66669;SDS011;53568;52.164;4.472;2024-03-02T02:05:15;0.81;;;0.80;;
66669;SDS011;53568;52.164;4.472;2024-03-02T02:07:42;0.77;;;0.76;;
66669;SDS011;53568;52.164;4.472;2024-03-02T02:10:08;0.97;;;0.96;;
66669;SDS011;53568;52.164;4.472;2024-03-02T02:12:35;0.95;;;0.94;;
66669;SDS011;53568;52.164;4.472;2024-03-02T02:15:01;1.34;;;1.33;;
66669;SDS011;53568;52.164;4.472;2024-03-02T02:17:27;1.45;;;1.44;;
66669;SDS011;53568;52.164;4.472;2024-03-02T02:19:53;1.84;;;1.83;;
66669;SDS011;53568;52.164;4.472;2024-03-02T02:22:18;2.05;;;2.05;;
66669;SDS011;53568;52.164;4.472;2024-03-02T02:24:44;2.33;;;2.33;;
66669;SDS011;53568;52.164;4.472;2024-03-02T02:27:10;2.83;;;2.83;;
66669;SDS011;53568;52.164;4.472;2024-03-02T02:29:36;3.06;;;3.06;;
66669;SDS011;53568;52.164;4.472;2024-03-02T02:32:02;3.52;;;3.49;;
66669;SDS011;53568;52.164;4.472;2024-03-02T02:34:28;4.25;;;4.13;;
66669;SDS011;53568;52.164;4.472;2024-03-02T02:36:53;4.11;;;4.09;;
66669;SDS011;53568;52.164;4.472;2024-03-02T02:39:20;3.96;;;3.96;;
66669;SDS011;53568;52.164;4.472;2024-03-02T02:41:47;4.13;;;4.13;;
66669;SDS011;53568;52.164;4.472;2024-03-02T02:44:13;4.04;;;4.04;;
66669;SDS011;53568;52.164;4.472;2024-03-02T02:46:39;4.10;;;4.10;;
66669;SDS011;53568;52.164;4.472;2024-03-02T02:49:05;4.40;;;4.40;;
66669;SDS011;53568;52.164;4.472;2024-03-02T02:51:31;4.21;;;4.21;;
66669;SDS011;53568;52.164;4.472;2024-03-02T02:53:57;4.23;;;4.23;;
66669;SDS011;53568;52.164;4.472;2024-03-02T02:56:22;3.92;;;3.92;;
66669;SDS011;53568;52.164;4.472;2024-03-02T02:58:48;4.00;;;4.00;;
66669;SDS011;53568;52.164;4.472;2024-03-02T03:01:15;3.92;;;3.92;;
66669;SDS011;53568;52.164;4.472;2024-03-02T03:03:43;4.02;;;4.02;;
66669;SDS011;53568;52.164;4.472;2024-03-02T03:06:09;3.68;;;3.68;;
66669;SDS011;53568;52.164;4.472;2024-03-02T03:08:34;3.57;;;3.57;;
66669;SDS011;53568;52.164;4.472;2024-03-02T03:11:00;2.97;;;2.97;;
66669;SDS011;53568;52.164;4.472;2024-03-02T03:13:26;2.77;;;2.77;;
66669;SDS011;53568;52.164;4.472;2024-03-02T03:15:51;2.84;;;2.84;;
66669;SDS011;53568;52.164;4.472;2024-03-02T03:18:17;2.76;;;2.76;;
66669;SDS011;53568;52.164;4.472;2024-03-02T03:20:43;2.82;;;2.82;;
66669;SDS011;53568;52.164;4.472;2024-03-02T03:23:09;2.53;;;2.53;;
66669;SDS011;53568;52.164;4.472;2024-03-02T03:25:34;2.81;;;2.81;;
66669;SDS011;53568;52.164;4.472;2024-03-02T03:28:00;2.61;;;2.61;;
66669;SDS011;53568;52.164;4.472;2024-03-02T03:30:26;3.04;;;3.04;;
66669;SDS011;53568;52.164;4.472;2024-03-02T03:32:52;3.11;;;3.11;;
66669;SDS011;53568;52.164;4.472;2024-03-02T03:35:18;2.99;;;2.99;;
66669;SDS011;53568;52.164;4.472;2024-03-02T03:37:43;3.02;;;3.02;;
66669;SDS011;53568;52.164;4.472;2024-03-02T03:40:09;2.82;;;2.82;;
66669;SDS011;53568;52.164;4.472;2024-03-02T03:42:36;2.84;;;2.84;;
66669;SDS011;53568;52.164;4.472;2024-03-02T03:45:02;2.77;;;2.77;;
66669;SDS011;53568;52.164;4.472;2024-03-02T03:47:28;3.05;;;3.05;;
66669;SDS011;53568;52.164;4.472;2024-03-02T03:49:55;2.82;;;2.82;;
66669;SDS011;53568;52.164;4.472;2024-03-02T03:52:20;2.70;;;2.70;;
66669;SDS011;53568;52.164;4.472;2024-03-02T03:54:46;2.77;;;2.77;;
66669;SDS011;53568;52.164;4.472;2024-03-02T03:57:12;2.92;;;2.92;;
66669;SDS011;53568;52.164;4.472;2024-03-02T03:59:37;2.87;;;2.87;;
66669;SDS011;53568;52.164;4.472;2024-03-02T04:02:03;2.55;;;2.55;;
66669;SDS011;53568;52.164;4.472;2024-03-02T04:04:29;2.62;;;2.62;;
66669;SDS011;53568;52.164;4.472;2024-03-02T04:06:55;2.53;;;2.53;;
66669;SDS011;53568;52.164;4.472;2024-03-02T04:09:20;2.54;;;2.54;;
66669;SDS011;53568;52.164;4.472;2024-03-02T04:11:46;2.56;;;2.56;;
66669;SDS011;53568;52.164;4.472;2024-03-02T04:14:11;2.31;;;2.31;;
66669;SDS011;53568;52.164;4.472;2024-03-02T04:16:37;2.40;;;2.40;;
66669;SDS011;53568;52.164;4.472;2024-03-02T04:19:05;2.41;;;2.41;;
66669;SDS011;53568;52.164;4.472;2024-03-02T04:21:31;2.32;;;2.32;;
66669;SDS011;53568;52.164;4.472;2024-03-02T04:23:56;2.26;;;2.26;;
66669;SDS011;53568;52.164;4.472;2024-03-02T04:26:25;2.32;;;2.32;;
66669;SDS011;53568;52.164;4.472;2024-03-02T04:28:51;2.48;;;2.48;;
66669;SDS011;53568;52.164;4.472;2024-03-02T04:31:17;2.41;;;2.41;;
66669;SDS011;53568;52.164;4.472;2024-03-02T04:33:43;2.44;;;2.44;;
66669;SDS011;53568;52.164;4.472;2024-03-02T04:36:09;2.74;;;2.74;;
66669;SDS011;53568;52.164;4.472;2024-03-02T04:38:35;2.62;;;2.62;;
66669;SDS011;53568;52.164;4.472;2024-03-02T04:41:01;2.75;;;2.75;;
66669;SDS011;53568;52.164;4.472;2024-03-02T04:43:26;2.74;;;2.74;;
66669;SDS011;53568;52.164;4.472;2024-03-02T04:45:52;2.46;;;2.46;;
66669;SDS011;53568;52.164;4.472;2024-03-02T04:48:17;2.49;;;2.49;;
66669;SDS011;53568;52.164;4.472;2024-03-02T04:50:44;2.61;;;2.61;;
66669;SDS011;53568;52.164;4.472;2024-03-02T04:53:09;2.52;;;2.52;;
66669;SDS011;53568;52.164;4.472;2024-03-02T04:55:35;2.97;;;2.97;;
66669;SDS011;53568;52.164;4.472;2024-03-02T04:58:20;2.75;;;2.75;;
66669;SDS011;53568;52.164;4.472;2024-03-02T05:00:46;2.73;;;2.73;;
66669;SDS011;53568;52.164;4.472;2024-03-02T05:03:12;2.61;;;2.61;;
66669;SDS011;53568;52.164;4.472;2024-03-02T05:05:38;2.40;;;2.40;;
66669;SDS011;53568;52.164;4.472;2024-03-02T05:08:03;2.43;;;2.43;;
66669;SDS011;53568;52.164;4.472;2024-03-02T05:10:29;2.57;;;2.57;;
66669;SDS011;53568;52.164;4.472;2024-03-02T05:12:55;2.18;;;2.18;;
66669;SDS011;53568;52.164;4.472;2024-03-02T05:15:24;2.05;;;2.05;;
66669;SDS011;53568;52.164;4.472;2024-03-02T05:17:50;2.29;;;2.29;;
66669;SDS011;53568;52.164;4.472;2024-03-02T05:20:15;2.26;;;2.26;;
66669;SDS011;53568;52.164;4.472;2024-03-02T05:22:42;2.20;;;2.20;;
66669;SDS011;53568;52.164;4.472;2024-03-02T05:25:07;1.93;;;1.93;;
66669;SDS011;53568;52.164;4.472;2024-03-02T05:27:34;2.26;;;2.26;;
66669;SDS011;53568;52.164;4.472;2024-03-02T05:30:00;2.15;;;2.15;;
66669;SDS011;53568;52.164;4.472;2024-03-02T05:32:26;1.95;;;1.95;;
66669;SDS011;53568;52.164;4.472;2024-03-02T05:34:51;2.17;;;2.17;;
66669;SDS011;53568;52.164;4.472;2024-03-02T05:37:17;2.04;;;2.04;;
66669;SDS011;53568;52.164;4.472;2024-03-02T05:39:43;2.04;;;2.04;;
66669;SDS011;53568;52.164;4.472;2024-03-02T05:42:09;2.03;;;2.03;;
66669;SDS011;53568;52.164;4.472;2024-03-02T05:44:35;2.07;;;2.07;;
66669;SDS011;53568;52.164;4.472;2024-03-02T05:47:01;1.93;;;1.93;;
66669;SDS011;53568;52.164;4.472;2024-03-02T05:49:26;2.01;;;2.01;;
66669;SDS011;53568;52.164;4.472;2024-03-02T05:51:52;1.94;;;1.94;;
66669;SDS011;53568;52.164;4.472;2024-03-02T05:54:17;1.85;;;1.85;;
66669;SDS011;53568;52.164;4.472;2024-03-02T05:56:43;1.76;;;1.76;;
66669;SDS011;53568;52.164;4.472;2024-03-02T05:59:09;1.64;;;1.64;;
66669;SDS011;53568;52.164;4.472;2024-03-02T06:01:39;1.62;;;1.62;;
66669;SDS011;53568;52.164;4.472;2024-03-02T06:04:05;1.57;;;1.57;;
66669;SDS011;53568;52.164;4.472;2024-03-02T06:06:31;1.71;;;1.69;;
66669;SDS011;53568;52.164;4.472;2024-03-02T06:09:00;1.61;;;1.59;;
66669;SDS011;53568;52.164;4.472;2024-03-02T06:11:26;1.51;;;1.49;;
66669;SDS011;53568;52.164;4.472;2024-03-02T06:13:51;1.47;;;1.45;;
66669;SDS011;53568;52.164;4.472;2024-03-02T06:16:17;1.43;;;1.42;;
66669;SDS011;53568;52.164;4.472;2024-03-02T06:18:42;1.43;;;1.43;;
66669;SDS011;53568;52.164;4.472;2024-03-02T06:21:08;1.40;;;1.40;;
66669;SDS011;53568;52.164;4.472;2024-03-02T06:23:33;1.32;;;1.32;;
66669;SDS011;53568;52.164;4.472;2024-03-02T06:26:00;1.49;;;1.49;;
66669;SDS011;53568;52.164;4.472;2024-03-02T06:28:25;1.52;;;1.52;;
66669;SDS011;53568;52.164;4.472;2024-03-02T06:30:51;1.54;;;1.54;;
66669;SDS011;53568;52.164;4.472;2024-03-02T06:33:17;1.59;;;1.59;;
66669;SDS011;53568;52.164;4.472;2024-03-02T06:35:42;1.68;;;1.66;;
66669;SDS011;53568;52.164;4.472;2024-03-02T06:38:08;1.49;;;1.48;;
66669;SDS011;53568;52.164;4.472;2024-03-02T06:40:34;1.50;;;1.49;;
66669;SDS011;53568;52.164;4.472;2024-03-02T06:43:02;1.50;;;1.49;;
66669;SDS011;53568;52.164;4.472;2024-03-02T06:45:28;1.64;;;1.62;;
66669;SDS011;53568;52.164;4.472;2024-03-02T06:47:55;1.62;;;1.59;;
66669;SDS011;53568;52.164;4.472;2024-03-02T06:50:21;1.66;;;1.62;;
66669;SDS011;53568;52.164;4.472;2024-03-02T06:52:47;1.45;;;1.42;;
66669;SDS011;53568;52.164;4.472;2024-03-02T06:55:12;1.65;;;1.60;;
66669;SDS011;53568;52.164;4.472;2024-03-02T06:57:38;1.76;;;1.69;;
66669;SDS011;53568;52.164;4.472;2024-03-02T07:00:04;1.67;;;1.61;;
66669;SDS011;53568;52.164;4.472;2024-03-02T07:02:30;1.49;;;1.44;;
66669;SDS011;53568;52.164;4.472;2024-03-02T07:04:56;1.49;;;1.44;;
66669;SDS011;53568;52.164;4.472;2024-03-02T07:07:21;1.45;;;1.40;;
66669;SDS011;53568;52.164;4.472;2024-03-02T07:09:47;1.74;;;1.67;;
66669;SDS011;53568;52.164;4.472;2024-03-02T07:12:13;1.72;;;1.65;;
66669;SDS011;53568;52.164;4.472;2024-03-02T07:14:39;1.63;;;1.57;;
66669;SDS011;53568;52.164;4.472;2024-03-02T07:17:23;1.75;;;1.70;;
66669;SDS011;53568;52.164;4.472;2024-03-02T07:19:48;1.78;;;1.73;;
66669;SDS011;53568;52.164;4.472;2024-03-02T07:22:14;1.84;;;1.79;;
66669;SDS011;53568;52.164;4.472;2024-03-02T07:24:43;2.14;;;2.07;;
66669;SDS011;53568;52.164;4.472;2024-03-02T07:27:11;2.12;;;2.07;;
66669;SDS011;53568;52.164;4.472;2024-03-02T07:29:38;1.69;;;1.66;;
66669;SDS011;53568;52.164;4.472;2024-03-02T07:32:05;1.73;;;1.69;;
66669;SDS011;53568;52.164;4.472;2024-03-02T07:34:31;1.83;;;1.79;;
66669;SDS011;53568;52.164;4.472;2024-03-02T07:36:57;1.64;;;1.60;;
66669;SDS011;53568;52.164;4.472;2024-03-02T07:39:23;1.91;;;1.84;;
66669;SDS011;53568;52.164;4.472;2024-03-02T07:41:49;1.92;;;1.84;;
66669;SDS011;53568;52.164;4.472;2024-03-02T07:44:15;1.76;;;1.67;;
66669;SDS011;53568;52.164;4.472;2024-03-02T07:46:43;2.23;;;2.14;;
66669;SDS011;53568;52.164;4.472;2024-03-02T07:49:09;2.17;;;2.07;;
66669;SDS011;53568;52.164;4.472;2024-03-02T07:51:35;2.13;;;2.02;;
66669;SDS011;53568;52.164;4.472;2024-03-02T07:54:03;1.97;;;1.89;;
66669;SDS011;53568;52.164;4.472;2024-03-02T07:56:29;2.57;;;2.46;;
66669;SDS011;53568;52.164;4.472;2024-03-02T07:58:55;2.25;;;2.14;;
66669;SDS011;53568;52.164;4.472;2024-03-02T08:01:22;1.74;;;1.66;;
66669;SDS011;53568;52.164;4.472;2024-03-02T08:03:48;1.77;;;1.71;;
66669;SDS011;53568;52.164;4.472;2024-03-02T08:06:15;2.27;;;2.20;;
66669;SDS011;53568;52.164;4.472;2024-03-02T08:08:42;2.44;;;2.36;;
66669;SDS011;53568;52.164;4.472;2024-03-02T08:11:08;1.79;;;1.74;;
66669;SDS011;53568;52.164;4.472;2024-03-02T08:13:34;1.80;;;1.74;;
66669;SDS011;53568;52.164;4.472;2024-03-02T08:16:00;1.83;;;1.73;;
66669;SDS011;53568;52.164;4.472;2024-03-02T08:18:25;1.86;;;1.76;;
66669;SDS011;53568;52.164;4.472;2024-03-02T08:20:51;1.63;;;1.55;;
66669;SDS011;53568;52.164;4.472;2024-03-02T08:23:16;1.98;;;1.89;;
66669;SDS011;53568;52.164;4.472;2024-03-02T08:25:42;2.04;;;1.94;;
66669;SDS011;53568;52.164;4.472;2024-03-02T08:28:08;1.93;;;1.83;;
66669;SDS011;53568;52.164;4.472;2024-03-02T08:30:33;1.85;;;1.75;;
66669;SDS011;53568;52.164;4.472;2024-03-02T08:32:59;1.90;;;1.77;;
66669;SDS011;53568;52.164;4.472;2024-03-02T08:35:25;2.02;;;1.86;;
66669;SDS011;53568;52.164;4.472;2024-03-02T08:37:51;2.14;;;1.99;;
66669;SDS011;53568;52.164;4.472;2024-03-02T08:40:16;2.27;;;2.12;;
66669;SDS011;53568;52.164;4.472;2024-03-02T08:42:42;1.99;;;1.88;;
66669;SDS011;53568;52.164;4.472;2024-03-02T08:45:08;2.21;;;2.09;;
66669;SDS011;53568;52.164;4.472;2024-03-02T08:47:33;2.21;;;2.08;;
66669;SDS011;53568;52.164;4.472;2024-03-02T08:49:59;2.06;;;1.93;;
66669;SDS011;53568;52.164;4.472;2024-03-02T08:52:26;2.25;;;2.07;;
66669;SDS011;53568;52.164;4.472;2024-03-02T08:54:51;2.03;;;1.88;;
66669;SDS011;53568;52.164;4.472;2024-03-02T08:57:17;2.18;;;2.07;;
66669;SDS011;53568;52.164;4.472;2024-03-02T08:59:43;2.13;;;2.02;;
66669;SDS011;53568;52.164;4.472;2024-03-02T09:02:09;1.99;;;1.87;;
66669;SDS011;53568;52.164;4.472;2024-03-02T09:04:35;2.37;;;2.19;;
66669;SDS011;53568;52.164;4.472;2024-03-02T09:07:00;2.18;;;1.96;;
66669;SDS011;53568;52.164;4.472;2024-03-02T09:09:26;2.19;;;1.96;;
66669;SDS011;53568;52.164;4.472;2024-03-02T09:11:52;2.24;;;2.00;;
66669;SDS011;53568;52.164;4.472;2024-03-02T09:14:20;2.16;;;1.95;;
66669;SDS011;53568;52.164;4.472;2024-03-02T09:16:46;2.26;;;2.01;;
66669;SDS011;53568;52.164;4.472;2024-03-02T09:19:11;2.34;;;2.05;;
66669;SDS011;53568;52.164;4.472;2024-03-02T09:21:37;2.45;;;2.14;;
66669;SDS011;53568;52.164;4.472;2024-03-02T09:24:02;2.30;;;1.98;;
66669;SDS011;53568;52.164;4.472;2024-03-02T09:26:28;2.39;;;2.01;;
66669;SDS011;53568;52.164;4.472;2024-03-02T09:28:54;2.51;;;2.13;;
66669;SDS011;53568;52.164;4.472;2024-03-02T09:31:20;2.38;;;2.03;;
66669;SDS011;53568;52.164;4.472;2024-03-02T09:33:45;2.45;;;2.06;;
66669;SDS011;53568;52.164;4.472;2024-03-02T09:36:18;3.20;;;2.70;;
66669;SDS011;53568;52.164;4.472;2024-03-02T09:38:45;2.85;;;2.41;;
66669;SDS011;53568;52.164;4.472;2024-03-02T09:41:11;2.49;;;2.08;;
66669;SDS011;53568;52.164;4.472;2024-03-02T09:43:37;2.21;;;1.86;;
66669;SDS011;53568;52.164;4.472;2024-03-02T09:46:03;2.98;;;2.49;;
66669;SDS011;53568;52.164;4.472;2024-03-02T09:48:29;2.63;;;2.18;;
66669;SDS011;53568;52.164;4.472;2024-03-02T09:50:54;2.33;;;1.96;;
66669;SDS011;53568;52.164;4.472;2024-03-02T09:53:20;2.21;;;1.90;;
66669;SDS011;53568;52.164;4.472;2024-03-02T09:55:48;2.36;;;1.98;;
66669;SDS011;53568;52.164;4.472;2024-03-02T09:58:14;2.28;;;1.89;;
66669;SDS011;53568;52.164;4.472;2024-03-02T10:00:39;2.61;;;2.18;;
66669;SDS011;53568;52.164;4.472;2024-03-02T10:03:05;2.46;;;2.04;;
66669;SDS011;53568;52.164;4.472;2024-03-02T10:05:36;2.65;;;2.16;;
66669;SDS011;53568;52.164;4.472;2024-03-02T10:08:02;2.37;;;1.94;;
66669;SDS011;53568;52.164;4.472;2024-03-02T10:10:37;2.17;;;1.77;;
66669;SDS011;53568;52.164;4.472;2024-03-02T10:13:12;2.56;;;1.99;;
66669;SDS011;53568;52.164;4.472;2024-03-02T10:15:39;2.58;;;2.01;;
66669;SDS011;53568;52.164;4.472;2024-03-02T10:18:11;2.49;;;1.94;;
66669;SDS011;53568;52.164;4.472;2024-03-02T10:20:38;2.62;;;2.01;;
66669;SDS011;53568;52.164;4.472;2024-03-02T10:23:12;2.48;;;1.90;;
66669;SDS011;53568;52.164;4.472;2024-03-02T10:25:39;3.04;;;2.27;;
66669;SDS011;53568;52.164;4.472;2024-03-02T10:28:05;2.88;;;2.18;;
66669;SDS011;53568;52.164;4.472;2024-03-02T10:30:31;2.70;;;2.03;;
66669;SDS011;53568;52.164;4.472;2024-03-02T10:32:58;2.80;;;2.07;;
66669;SDS011;53568;52.164;4.472;2024-03-02T10:35:31;2.55;;;1.88;;
66669;SDS011;53568;52.164;4.472;2024-03-02T10:38:01;2.84;;;2.11;;
66669;SDS011;53568;52.164;4.472;2024-03-02T10:40:29;2.94;;;2.20;;
66669;SDS011;53568;52.164;4.472;2024-03-02T10:42:55;2.66;;;2.04;;
66669;SDS011;53568;52.164;4.472;2024-03-02T10:45:21;2.44;;;1.88;;
66669;SDS011;53568;52.164;4.472;2024-03-02T10:47:49;2.83;;;2.16;;
66669;SDS011;53568;52.164;4.472;2024-03-02T10:50:16;2.62;;;2.00;;
66669;SDS011;53568;52.164;4.472;2024-03-02T10:52:42;2.51;;;1.94;;
66669;SDS011;53568;52.164;4.472;2024-03-02T10:55:08;2.69;;;2.04;;
66669;SDS011;53568;52.164;4.472;2024-03-02T10:57:41;3.12;;;2.32;;
66669;SDS011;53568;52.164;4.472;2024-03-02T11:00:13;3.00;;;2.20;;
66669;SDS011;53568;52.164;4.472;2024-03-02T11:02:49;3.12;;;2.29;;
66669;SDS011;53568;52.164;4.472;2024-03-02T11:05:18;3.30;;;2.38;;
66669;SDS011;53568;52.164;4.472;2024-03-02T11:07:53;3.63;;;2.56;;
66669;SDS011;53568;52.164;4.472;2024-03-02T11:10:28;3.19;;;2.26;;
66669;SDS011;53568;52.164;4.472;2024-03-02T11:13:02;3.53;;;2.51;;
66669;SDS011;53568;52.164;4.472;2024-03-02T11:15:31;3.98;;;2.79;;
66669;SDS011;53568;52.164;4.472;2024-03-02T11:17:57;3.33;;;2.39;;
66669;SDS011;53568;52.164;4.472;2024-03-02T11:20:24;3.47;;;2.52;;
66669;SDS011;53568;52.164;4.472;2024-03-02T11:22:50;2.99;;;2.15;;
66669;SDS011;53568;52.164;4.472;2024-03-02T11:25:23;3.31;;;2.33;;
66669;SDS011;53568;52.164;4.472;2024-03-02T11:33:02;3.02;;;2.15;;
66669;SDS011;53568;52.164;4.472;2024-03-02T11:35:38;2.96;;;2.12;;
66669;SDS011;53568;52.164;4.472;2024-03-02T11:38:11;3.06;;;2.20;;
66669;SDS011;53568;52.164;4.472;2024-03-02T11:40:38;3.30;;;2.33;;
66669;SDS011;53568;52.164;4.472;2024-03-02T11:43:05;3.21;;;2.29;;
66669;SDS011;53568;52.164;4.472;2024-03-02T11:45:33;3.17;;;2.25;;
66669;SDS011;53568;52.164;4.472;2024-03-02T11:47:59;3.39;;;2.38;;
66669;SDS011;53568;52.164;4.472;2024-03-02T11:50:35;3.14;;;2.19;;
66669;SDS011;53568;52.164;4.472;2024-03-02T11:53:05;3.35;;;2.37;;
66669;SDS011;53568;52.164;4.472;2024-03-02T11:55:32;3.18;;;2.28;;
66669;SDS011;53568;52.164;4.472;2024-03-02T11:58:02;3.52;;;2.51;;
66669;SDS011;53568;52.164;4.472;2024-03-02T12:00:31;3.48;;;2.46;;
66669;SDS011;53568;52.164;4.472;2024-03-02T12:03:06;3.30;;;2.29;;
66669;SDS011;53568;52.164;4.472;2024-03-02T12:05:34;3.54;;;2.48;;
66669;SDS011;53568;52.164;4.472;2024-03-02T12:08:02;3.57;;;2.49;;
66669;SDS011;53568;52.164;4.472;2024-03-02T12:10:29;3.17;;;2.24;;
66669;SDS011;53568;52.164;4.472;2024-03-02T12:15:29;2.70;;;1.95;;
66669;SDS011;53568;52.164;4.472;2024-03-02T12:17:58;2.35;;;1.72;;
66669;SDS011;53568;52.164;4.472;2024-03-02T12:20:26;2.38;;;1.74;;
66669;SDS011;53568;52.164;4.472;2024-03-02T12:22:54;2.62;;;1.93;;
66669;SDS011;53568;52.164;4.472;2024-03-02T12:25:22;2.47;;;1.85;;
66669;SDS011;53568;52.164;4.472;2024-03-02T12:27:52;2.56;;;1.89;;
66669;SDS011;53568;52.164;4.472;2024-03-02T12:30:20;2.54;;;1.86;;
66669;SDS011;53568;52.164;4.472;2024-03-02T12:32:46;2.45;;;1.78;;
66669;SDS011;53568;52.164;4.472;2024-03-02T12:35:13;2.19;;;1.60;;
66669;SDS011;53568;52.164;4.472;2024-03-02T12:37:45;2.49;;;1.84;;
66669;SDS011;53568;52.164;4.472;2024-03-02T12:40:15;2.53;;;1.87;;
66669;SDS011;53568;52.164;4.472;2024-03-02T12:42:45;2.60;;;1.90;;
66669;SDS011;53568;52.164;4.472;2024-03-02T12:45:11;2.43;;;1.81;;
66669;SDS011;53568;52.164;4.472;2024-03-02T12:47:39;2.41;;;1.80;;
66669;SDS011;53568;52.164;4.472;2024-03-02T12:50:06;2.66;;;1.99;;
66669;SDS011;53568;52.164;4.472;2024-03-02T12:52:32;2.90;;;2.14;;
66669;SDS011;53568;52.164;4.472;2024-03-02T12:55:03;2.64;;;1.92;;
66669;SDS011;53568;52.164;4.472;2024-03-02T12:57:33;2.86;;;2.09;;
66669;SDS011;53568;52.164;4.472;2024-03-02T13:00:03;2.59;;;1.93;;
66669;SDS011;53568;52.164;4.472;2024-03-02T13:02:39;2.73;;;2.06;;
66669;SDS011;53568;52.164;4.472;2024-03-02T13:05:07;2.39;;;1.81;;
66669;SDS011;53568;52.164;4.472;2024-03-02T13:07:37;2.55;;;1.94;;
66669;SDS011;53568;52.164;4.472;2024-03-02T13:10:03;2.56;;;1.91;;
66669;SDS011;53568;52.164;4.472;2024-03-02T13:12:30;2.87;;;2.10;;
66669;SDS011;53568;52.164;4.472;2024-03-02T13:14:57;2.88;;;2.09;;
66669;SDS011;53568;52.164;4.472;2024-03-02T13:17:27;3.24;;;2.38;;
66669;SDS011;53568;52.164;4.472;2024-03-02T13:22:19;2.93;;;2.13;;
66669;SDS011;53568;52.164;4.472;2024-03-02T13:24:45;2.95;;;2.13;;
66669;SDS011;53568;52.164;4.472;2024-03-02T13:27:10;3.03;;;2.21;;
66669;SDS011;53568;52.164;4.472;2024-03-02T13:29:36;3.53;;;2.54;;
66669;SDS011;53568;52.164;4.472;2024-03-02T13:32:02;2.91;;;2.08;;
66669;SDS011;53568;52.164;4.472;2024-03-02T13:34:29;3.04;;;2.18;;
66669;SDS011;53568;52.164;4.472;2024-03-02T13:36:55;2.71;;;1.95;;
66669;SDS011;53568;52.164;4.472;2024-03-02T13:39:20;2.79;;;2.03;;
66669;SDS011;53568;52.164;4.472;2024-03-02T13:41:46;2.66;;;1.95;;
66669;SDS011;53568;52.164;4.472;2024-03-02T13:44:18;2.86;;;2.13;;
66669;SDS011;53568;52.164;4.472;2024-03-02T13:46:47;2.64;;;1.93;;
66669;SDS011;53568;52.164;4.472;2024-03-02T13:49:13;2.77;;;1.99;;
66669;SDS011;53568;52.164;4.472;2024-03-02T13:51:39;2.58;;;1.85;;
66669;SDS011;53568;52.164;4.472;2024-03-02T13:54:05;3.05;;;2.15;;
66669;SDS011;53568;52.164;4.472;2024-03-02T13:56:30;3.08;;;2.14;;
66669;SDS011;53568;52.164;4.472;2024-03-02T13:58:57;2.77;;;1.95;;
66669;SDS011;53568;52.164;4.472;2024-03-02T14:01:23;3.45;;;2.41;;
66669;SDS011;53568;52.164;4.472;2024-03-02T14:03:49;3.03;;;2.14;;
66669;SDS011;53568;52.164;4.472;2024-03-02T14:06:16;3.06;;;2.17;;
66669;SDS011;53568;52.164;4.472;2024-03-02T14:08:41;3.25;;;2.31;;
66669;SDS011;53568;52.164;4.472;2024-03-02T14:11:10;2.77;;;1.99;;
66669;SDS011;53568;52.164;4.472;2024-03-02T14:13:40;2.69;;;1.96;;
66669;SDS011;53568;52.164;4.472;2024-03-02T14:16:12;2.64;;;1.93;;
66669;SDS011;53568;52.164;4.472;2024-03-02T14:18:37;2.68;;;1.99;;
66669;SDS011;53568;52.164;4.472;2024-03-02T14:21:05;2.68;;;2.01;;
66669;SDS011;53568;52.164;4.472;2024-03-02T14:23:31;2.26;;;1.69;;
66669;SDS011;53568;52.164;4.472;2024-03-02T14:25:56;2.50;;;1.87;;
66669;SDS011;53568;52.164;4.472;2024-03-02T14:28:24;2.29;;;1.73;;
66669;SDS011;53568;52.164;4.472;2024-03-02T14:30:49;2.80;;;2.10;;
66669;SDS011;53568;52.164;4.472;2024-03-02T14:33:15;2.55;;;1.95;;
66669;SDS011;53568;52.164;4.472;2024-03-02T14:35:41;2.33;;;1.83;;
66669;SDS011;53568;52.164;4.472;2024-03-02T14:38:07;2.24;;;1.73;;
66669;SDS011;53568;52.164;4.472;2024-03-02T14:40:33;2.15;;;1.65;;
66669;SDS011;53568;52.164;4.472;2024-03-02T14:42:58;2.14;;;1.64;;
66669;SDS011;53568;52.164;4.472;2024-03-02T14:45:24;2.37;;;1.81;;
66669;SDS011;53568;52.164;4.472;2024-03-02T14:47:49;2.31;;;1.76;;
66669;SDS011;53568;52.164;4.472;2024-03-02T14:50:17;2.32;;;1.74;;
66669;SDS011;53568;52.164;4.472;2024-03-02T14:52:43;2.27;;;1.72;;
66669;SDS011;53568;52.164;4.472;2024-03-02T14:55:10;2.48;;;1.88;;
66669;SDS011;53568;52.164;4.472;2024-03-02T14:57:35;2.47;;;1.86;;
66669;SDS011;53568;52.164;4.472;2024-03-02T15:00:01;2.42;;;1.82;;